createdAt,value
2017-07-09T00:00:24.113Z,101449.67
2017-07-09T00:02:53.000Z,101456.22
2017-07-09T00:05:21.344Z,101462.43
2017-07-09T00:07:49.699Z,101463.50
2017-07-09T00:10:18.478Z,101462.20
2017-07-09T00:12:46.824Z,101458.69
2017-07-09T00:17:50.322Z,101464.86
2017-07-09T00:20:18.659Z,101470.80
2017-07-09T00:22:47.000Z,101471.03
2017-07-09T00:25:15.956Z,101467.66
2017-07-09T00:27:44.295Z,101469.14
2017-07-09T00:30:12.637Z,101470.25
2017-07-09T00:32:41.408Z,101473.28
2017-07-09T00:35:09.731Z,101468.36
2017-07-09T00:37:38.058Z,101467.70
2017-07-09T00:40:07.465Z,101472.67
2017-07-09T00:42:35.790Z,101482.79
2017-07-09T00:45:04.122Z,101478.22
2017-07-09T00:47:33.872Z,101475.19
2017-07-09T00:50:02.233Z,101472.93
2017-07-09T00:52:30.566Z,101470.28
2017-07-09T00:55:00.189Z,101475.08
2017-07-09T00:57:28.504Z,101465.88
2017-07-09T00:59:56.857Z,101463.80
2017-07-09T01:02:25.509Z,101460.95
2017-07-09T01:04:53.837Z,101449.49
2017-07-09T01:07:22.184Z,101457.20
2017-07-09T01:09:51.081Z,101445.94
2017-07-09T01:12:19.460Z,101446.85
2017-07-09T01:14:48.568Z,101447.86
2017-07-09T01:17:18.770Z,101446.85
2017-07-09T01:19:47.128Z,101450.17
2017-07-09T01:22:15.474Z,101455.00
2017-07-09T01:24:44.439Z,101459.34
2017-07-09T01:27:12.780Z,101459.12
2017-07-09T01:29:41.144Z,101450.09
2017-07-09T01:32:10.098Z,101455.03
2017-07-09T01:34:38.435Z,101459.06
2017-07-09T01:37:06.773Z,101459.32
2017-07-09T01:39:35.384Z,101452.03
2017-07-09T01:42:03.732Z,101443.03
2017-07-09T01:44:32.075Z,101437.37
2017-07-09T01:47:00.820Z,101436.70
2017-07-09T01:49:29.154Z,101434.13
2017-07-09T01:51:57.477Z,101434.46
2017-07-09T01:54:26.426Z,101443.94
2017-07-09T01:56:54.750Z,101439.27
2017-07-09T01:59:23.079Z,101442.59
2017-07-09T02:01:52.474Z,101438.98
2017-07-09T02:04:20.827Z,101431.88
2017-07-09T02:06:49.156Z,101441.31
2017-07-09T02:09:18.122Z,101439.36
2017-07-09T02:11:46.466Z,101446.41
2017-07-09T02:14:14.802Z,101447.63
2017-07-09T02:16:43.989Z,101446.55
2017-07-09T02:19:12.551Z,101440.28
2017-07-09T02:21:40.922Z,101443.05
2017-07-09T02:24:09.654Z,101448.34
2017-07-09T02:26:37.996Z,101455.55
2017-07-09T02:29:06.345Z,101453.63
2017-07-09T02:31:34.995Z,101457.40
2017-07-09T02:34:03.361Z,101451.59
2017-07-09T02:36:31.717Z,101454.80
2017-07-09T02:39:00.670Z,101455.84
2017-07-09T02:41:29.005Z,101463.02
2017-07-09T02:43:57.335Z,101463.67
2017-07-09T02:46:26.193Z,101455.27
2017-07-09T02:48:54.518Z,101464.19
2017-07-09T02:51:22.868Z,101464.47
2017-07-09T02:53:51.558Z,101464.85
2017-07-09T02:56:19.897Z,101457.06
2017-07-09T02:58:48.230Z,101451.92
2017-07-09T03:01:17.309Z,101455.60
2017-07-09T03:03:45.643Z,101447.58
2017-07-09T03:06:13.985Z,101446.97
2017-07-09T03:08:42.736Z,101443.75
2017-07-09T03:11:11.074Z,101451.77
2017-07-09T03:13:39.430Z,101450.92
2017-07-09T03:16:08.163Z,101448.74
2017-07-09T03:18:36.543Z,101453.67
2017-07-09T03:21:04.902Z,101460.45
2017-07-09T03:23:33.904Z,101466.05
2017-07-09T03:26:03.016Z,101456.35
2017-07-09T03:28:31.323Z,101457.46
2017-07-09T03:31:00.284Z,101459.41
2017-07-09T03:33:28.623Z,101448.84
2017-07-09T03:35:56.982Z,101445.45
2017-07-09T03:38:25.725Z,101452.02
2017-07-09T03:40:54.082Z,101456.30
2017-07-09T03:43:22.422Z,101457.48
2017-07-09T03:45:51.545Z,101451.53
2017-07-09T03:48:19.882Z,101452.88
2017-07-09T03:50:48.209Z,101455.73
2017-07-09T03:53:16.847Z,101449.72
2017-07-09T03:55:45.238Z,101454.09
2017-07-09T03:58:13.614Z,101454.78
2017-07-09T04:00:42.478Z,101461.65
2017-07-09T04:03:10.823Z,101468.42
2017-07-09T04:05:39.175Z,101468.05
2017-07-09T04:08:08.238Z,101466.53
2017-07-09T04:10:36.582Z,101458.91
2017-07-09T04:13:04.940Z,101463.41
2017-07-09T04:15:33.586Z,101459.73
2017-07-09T04:18:01.914Z,101456.70
2017-07-09T04:20:30.241Z,101466.28
2017-07-09T04:22:59.018Z,101468.70
2017-07-09T04:25:27.383Z,101469.83
2017-07-09T04:27:56.497Z,101475.91
2017-07-09T04:30:25.345Z,101472.61
2017-07-09T04:32:53.685Z,101469.64
2017-07-09T04:35:22.024Z,101471.38
2017-07-09T04:37:50.924Z,101466.20
2017-07-09T04:40:19.266Z,101467.78
2017-07-09T04:42:47.625Z,101467.61
2017-07-09T04:45:16.266Z,101480.27
2017-07-09T04:47:45.361Z,101483.39
2017-07-09T04:50:14.483Z,101475.05
2017-07-09T04:52:43.168Z,101474.71
2017-07-09T04:55:11.494Z,101472.23
2017-07-09T04:57:39.855Z,101479.55
2017-07-09T05:00:08.695Z,101475.20
2017-07-09T05:02:37.030Z,101464.54
2017-07-09T05:05:05.401Z,101468.67
2017-07-09T05:07:34.337Z,101461.59
2017-07-09T05:10:02.683Z,101465.73
2017-07-09T05:12:31.028Z,101469.41
2017-07-09T05:14:59.996Z,101468.37
2017-07-09T05:17:28.330Z,101471.45
2017-07-09T05:19:56.676Z,101460.75
2017-07-09T05:22:25.515Z,101465.98
2017-07-09T05:24:53.860Z,101464.08
2017-07-09T05:27:22.191Z,101462.09
2017-07-09T05:29:51.112Z,101457.38
2017-07-09T05:32:19.460Z,101462.61
2017-07-09T05:34:47.852Z,101469.14
2017-07-09T05:37:16.699Z,101468.48
2017-07-09T05:39:45.033Z,101461.66
2017-07-09T05:42:13.364Z,101456.19
2017-07-09T05:44:42.056Z,101454.25
2017-07-09T05:47:10.392Z,101466.26
2017-07-09T05:49:38.715Z,101471.02
2017-07-09T05:52:07.434Z,101469.02
2017-07-09T05:54:35.775Z,101473.41
2017-07-09T05:57:04.105Z,101478.74
2017-07-09T05:59:32.911Z,101482.57
2017-07-09T06:02:01.232Z,101486.78
2017-07-09T06:04:29.563Z,101480.48
2017-07-09T06:06:58.173Z,101480.56
2017-07-09T06:09:26.509Z,101483.02
2017-07-09T06:11:54.845Z,101485.83
2017-07-09T06:14:23.560Z,101490.48
2017-07-09T06:16:51.886Z,101492.18
2017-07-09T06:19:20.232Z,101496.93
2017-07-09T06:21:49.219Z,101496.28
2017-07-09T06:24:17.565Z,101487.91
2017-07-09T06:26:45.902Z,101489.68
2017-07-09T06:29:14.601Z,101495.96
2017-07-09T06:31:42.956Z,101496.64
2017-07-09T06:34:11.295Z,101489.02
2017-07-09T06:36:40.723Z,101482.55
2017-07-09T06:39:09.060Z,101482.97
2017-07-09T06:41:37.394Z,101477.57
2017-07-09T06:44:06.572Z,101471.86
2017-07-09T06:46:34.919Z,101470.73
2017-07-09T06:49:03.289Z,101475.16
2017-07-09T06:51:32.013Z,101466.82
2017-07-09T06:54:00.391Z,101471.78
2017-07-09T06:56:29.497Z,101463.09
2017-07-09T06:58:58.108Z,101470.45
2017-07-09T07:01:26.463Z,101466.22
2017-07-09T07:03:54.793Z,101466.52
2017-07-09T07:06:23.932Z,101466.94
2017-07-09T07:08:52.266Z,101473.05
2017-07-09T07:11:20.620Z,101471.56
2017-07-09T07:13:49.582Z,101474.78
2017-07-09T07:16:17.913Z,101476.05
2017-07-09T07:18:46.234Z,101474.47
2017-07-09T07:21:15.736Z,101481.77
2017-07-09T07:23:44.835Z,101478.49
2017-07-09T07:26:13.938Z,101482.83
2017-07-09T07:28:42.686Z,101479.12
2017-07-09T07:31:11.038Z,101471.50
2017-07-09T07:33:39.377Z,101466.22
2017-07-09T07:36:08.773Z,101470.55
2017-07-09T07:38:37.109Z,101475.01
2017-07-09T07:41:05.441Z,101471.18
2017-07-09T07:43:34.238Z,101468.66
2017-07-09T07:46:02.582Z,101465.27
2017-07-09T07:48:30.916Z,101470.45
2017-07-09T07:50:59.723Z,101468.95
2017-07-09T07:53:28.065Z,101466.05
2017-07-09T07:55:56.408Z,101473.96
2017-07-09T07:58:25.030Z,101469.11
2017-07-09T08:00:53.383Z,101462.52
2017-07-09T08:03:21.724Z,101468.23
2017-07-09T08:05:50.346Z,101460.61
2017-07-09T08:08:18.686Z,101454.78
2017-07-09T08:10:47.014Z,101451.92
2017-07-09T08:13:15.766Z,101455.77
2017-07-09T08:15:44.101Z,101444.82
2017-07-09T08:18:12.457Z,101440.56
2017-07-09T08:20:41.088Z,101445.58
2017-07-09T08:23:09.414Z,101448.98
2017-07-09T08:25:37.846Z,101453.95
2017-07-09T08:28:06.706Z,101450.95
2017-07-09T08:30:35.039Z,101443.16
2017-07-09T08:33:03.375Z,101447.63
2017-07-09T08:35:32.102Z,101459.02
2017-07-09T08:38:00.464Z,101457.61
2017-07-09T08:40:28.801Z,101453.59
2017-07-09T08:42:57.576Z,101449.95
2017-07-09T08:45:25.908Z,101448.34
2017-07-09T08:47:54.241Z,101457.98
2017-07-09T08:50:23.181Z,101451.73
2017-07-09T08:52:51.526Z,101450.53
2017-07-09T08:55:19.859Z,101452.21
2017-07-09T08:57:48.531Z,101445.31
2017-07-09T09:00:16.885Z,101448.40
2017-07-09T09:02:45.233Z,101443.61
2017-07-09T09:05:13.926Z,101443.83
2017-07-09T09:07:42.240Z,101433.16
2017-07-09T09:10:10.589Z,101430.08
2017-07-09T09:12:39.237Z,101436.95
2017-07-09T09:15:07.575Z,101427.15
2017-07-09T09:17:35.918Z,101421.80
2017-07-09T09:20:05.030Z,101421.41
2017-07-09T09:22:33.370Z,101413.02
2017-07-09T09:25:02.545Z,101420.09
2017-07-09T09:27:31.230Z,101413.60
2017-07-09T09:29:59.588Z,101416.78
2017-07-09T09:32:27.965Z,101413.64
2017-07-09T09:34:56.589Z,101421.05
2017-07-09T09:37:24.932Z,101417.05
2017-07-09T09:39:53.276Z,101414.28
2017-07-09T09:42:22.071Z,101414.50
2017-07-09T09:44:50.434Z,101407.41
2017-07-09T09:47:18.811Z,101403.25
2017-07-09T09:49:48.239Z,101400.73
2017-07-09T09:52:16.586Z,101402.73
2017-07-09T09:54:45.709Z,101404.22
2017-07-09T09:57:14.358Z,101403.25
2017-07-09T09:59:42.682Z,101399.44
2017-07-09T10:02:11.032Z,101394.16
2017-07-09T10:04:39.899Z,101389.41
2017-07-09T10:07:08.237Z,101380.39
2017-07-09T10:09:36.639Z,101385.20
2017-07-09T10:12:05.273Z,101377.39
2017-07-09T10:14:33.597Z,101365.66
2017-07-09T10:17:01.978Z,101375.27
2017-07-09T10:19:30.647Z,101372.28
2017-07-09T10:21:58.978Z,101364.20
2017-07-09T10:24:27.348Z,101363.69
2017-07-09T10:26:57.303Z,101360.13
2017-07-09T10:29:25.646Z,101363.30
2017-07-09T10:31:54.034Z,101358.55
2017-07-09T10:34:22.661Z,101350.59
2017-07-09T10:36:51.022Z,101349.22
2017-07-09T10:39:19.446Z,101349.30
2017-07-09T10:41:48.120Z,101349.03
2017-07-09T10:44:16.452Z,101342.47
2017-07-09T10:46:44.988Z,101336.08
2017-07-09T10:49:13.718Z,101341.20
2017-07-09T10:51:42.070Z,101342.20
2017-07-09T10:54:10.449Z,101338.87
2017-07-09T10:56:39.072Z,101342.86
2017-07-09T10:59:07.459Z,101349.13
2017-07-09T11:01:36.642Z,101344.95
2017-07-09T11:04:05.266Z,101340.55
2017-07-09T11:06:33.672Z,101336.58
2017-07-09T11:09:02.013Z,101342.47
2017-07-09T11:11:30.730Z,101342.94
2017-07-09T11:13:59.062Z,101342.95
2017-07-09T11:16:27.458Z,101333.19
2017-07-09T11:18:56.124Z,101329.98
2017-07-09T11:21:24.484Z,101330.27
2017-07-09T11:23:52.843Z,101330.86
2017-07-09T11:26:21.714Z,101322.88
2017-07-09T11:28:50.104Z,101325.05
2017-07-09T11:31:18.434Z,101320.88
2017-07-09T11:33:47.547Z,101326.38
2017-07-09T11:36:15.928Z,101323.73
2017-07-09T11:38:44.250Z,101320.26
2017-07-09T11:41:12.925Z,101321.00
2017-07-09T11:43:41.310Z,101315.34
2017-07-09T11:46:09.643Z,101317.72
2017-07-09T11:48:38.271Z,101320.52
2017-07-09T11:51:06.623Z,101316.45
2017-07-09T11:53:34.964Z,101311.99
2017-07-09T11:56:03.815Z,101312.75
2017-07-09T11:58:32.182Z,101306.62
2017-07-09T12:01:00.535Z,101302.03
2017-07-09T12:03:29.324Z,101297.31
2017-07-09T12:05:57.664Z,101297.65
2017-07-09T12:08:26.017Z,101299.04
2017-07-09T12:10:54.763Z,101296.86
2017-07-09T12:13:23.095Z,101294.66
2017-07-09T12:15:51.454Z,101300.59
2017-07-09T12:18:20.265Z,101295.48
2017-07-09T12:20:48.611Z,101292.38
2017-07-09T12:23:16.946Z,101290.86
2017-07-09T12:25:45.683Z,101280.89
2017-07-09T12:28:14.014Z,101279.07
2017-07-09T12:30:42.323Z,101279.22
2017-07-09T12:33:11.084Z,101285.78
2017-07-09T12:35:39.493Z,101285.84
2017-07-09T12:38:07.845Z,101277.86
2017-07-09T12:40:36.955Z,101277.48
2017-07-09T12:43:05.301Z,101270.42
2017-07-09T12:45:33.638Z,101272.23
2017-07-09T12:48:02.275Z,101271.82
2017-07-09T12:50:30.622Z,101267.48
2017-07-09T12:52:58.954Z,101270.69
2017-07-09T12:55:27.600Z,101276.95
2017-07-09T12:57:55.947Z,101268.44
2017-07-09T13:00:24.302Z,101269.30
2017-07-09T13:02:52.992Z,101264.11
2017-07-09T13:05:21.348Z,101267.33
2017-07-09T13:07:49.687Z,101262.72
2017-07-09T13:10:18.346Z,101263.98
2017-07-09T13:12:46.701Z,101261.40
2017-07-09T13:15:15.817Z,101264.83
2017-07-09T13:17:44.478Z,101251.28
2017-07-09T13:20:13.613Z,101256.56
2017-07-09T13:22:41.943Z,101250.69
2017-07-09T13:25:10.928Z,101246.64
2017-07-09T13:27:39.284Z,101247.80
2017-07-09T13:30:07.633Z,101248.33
2017-07-09T13:32:36.394Z,101245.52
2017-07-09T13:35:04.751Z,101241.02
2017-07-09T13:37:33.087Z,101243.72
2017-07-09T13:40:01.716Z,101243.00
2017-07-09T13:42:30.064Z,101243.44
2017-07-09T13:44:58.411Z,101245.61
2017-07-09T13:47:27.259Z,101231.18
2017-07-09T13:49:55.608Z,101224.78
2017-07-09T13:52:23.941Z,101224.28
2017-07-09T13:54:52.602Z,101219.75
2017-07-09T13:57:20.957Z,101224.56
2017-07-09T13:59:49.430Z,101227.22
2017-07-09T14:02:18.102Z,101224.73
2017-07-09T14:04:46.437Z,101225.03
2017-07-09T14:07:14.779Z,101222.91
2017-07-09T14:09:43.737Z,101216.94
2017-07-09T14:12:12.072Z,101217.50
2017-07-09T14:14:40.428Z,101214.75
2017-07-09T14:17:09.106Z,101212.02
2017-07-09T14:19:37.457Z,101217.70
2017-07-09T14:22:05.802Z,101214.22
2017-07-09T14:24:34.491Z,101206.01
2017-07-09T14:27:02.824Z,101198.91
2017-07-09T14:29:31.198Z,101195.97
2017-07-09T14:32:00.027Z,101197.25
2017-07-09T14:34:28.373Z,101196.81
2017-07-09T14:36:56.720Z,101191.36
2017-07-09T14:39:26.102Z,101196.68
2017-07-09T14:41:54.457Z,101187.59
2017-07-09T14:44:22.806Z,101180.88
2017-07-09T14:46:51.524Z,101180.61
2017-07-09T14:49:19.859Z,101189.70
2017-07-09T14:51:48.202Z,101185.53
2017-07-09T14:54:16.875Z,101187.89
2017-07-09T14:56:45.201Z,101183.00
2017-07-09T14:59:13.536Z,101181.87
2017-07-09T15:01:42.469Z,101176.98
2017-07-09T15:04:10.838Z,101168.48
2017-07-09T15:06:39.937Z,101174.60
2017-07-09T15:09:08.874Z,101172.10
2017-07-09T15:11:37.216Z,101164.73
2017-07-09T15:14:05.550Z,101174.61
2017-07-09T15:16:34.442Z,101166.39
2017-07-09T15:19:02.794Z,101172.81
2017-07-09T15:21:31.175Z,101162.55
2017-07-09T15:23:59.818Z,101163.17
2017-07-09T15:26:28.159Z,101165.03
2017-07-09T15:28:56.525Z,101165.52
2017-07-09T15:31:25.291Z,101162.47
2017-07-09T15:33:53.620Z,101160.38
2017-07-09T15:36:21.959Z,101157.02
2017-07-09T15:38:50.918Z,101150.88
2017-07-09T15:41:19.256Z,101149.63
2017-07-09T15:43:47.602Z,101146.69
2017-07-09T15:46:16.288Z,101148.92
2017-07-09T15:48:44.627Z,101141.39
2017-07-09T15:51:12.960Z,101147.81
2017-07-09T15:53:41.603Z,101138.61
2017-07-09T15:56:10.901Z,101137.47
2017-07-09T15:58:39.351Z,101135.80
2017-07-09T16:01:08.507Z,101130.23
2017-07-09T16:03:36.847Z,101123.39
2017-07-09T16:06:05.948Z,101122.13
2017-07-09T16:08:35.586Z,101118.36
2017-07-09T16:11:03.952Z,101123.95
2017-07-09T16:13:32.308Z,101123.25
2017-07-09T16:16:00.937Z,101120.03
2017-07-09T16:18:29.278Z,101121.83
2017-07-09T16:20:57.613Z,101115.56
2017-07-09T16:23:26.865Z,101118.07
2017-07-09T16:25:55.186Z,101117.25
2017-07-09T16:28:23.509Z,101113.06
2017-07-09T16:30:53.143Z,101101.20
2017-07-09T16:33:21.484Z,101099.66
2017-07-09T16:35:49.835Z,101102.02
2017-07-09T16:38:18.577Z,101104.28
2017-07-09T16:40:46.910Z,101095.99
2017-07-09T16:43:15.230Z,101099.34
2017-07-09T16:45:44.085Z,101099.62
2017-07-09T16:48:12.459Z,101091.39
2017-07-09T16:50:40.799Z,101090.82
2017-07-09T16:53:09.538Z,101082.76
2017-07-09T16:55:37.871Z,101082.19
2017-07-09T16:58:06.205Z,101081.06
2017-07-09T17:00:34.916Z,101081.05
2017-07-09T17:03:03.268Z,101078.03
2017-07-09T17:05:31.595Z,101074.16
2017-07-09T17:08:00.485Z,101069.14
2017-07-09T17:10:28.843Z,101073.08
2017-07-09T17:12:57.177Z,101075.02
2017-07-09T17:15:27.036Z,101068.81
2017-07-09T17:17:55.388Z,101070.80
2017-07-09T17:20:24.490Z,101072.19
2017-07-09T17:22:53.884Z,101065.56
2017-07-09T17:25:22.221Z,101069.03
2017-07-09T17:27:50.576Z,101063.44
2017-07-09T17:30:19.527Z,101071.21
2017-07-09T17:32:47.937Z,101066.69
2017-07-09T17:35:17.048Z,101065.64
2017-07-09T17:37:45.731Z,101061.30
2017-07-09T17:40:14.072Z,101061.99
2017-07-09T17:42:42.403Z,101064.45
2017-07-09T17:45:11.278Z,101064.44
2017-07-09T17:47:39.633Z,101061.64
2017-07-09T17:50:08.738Z,101062.01
2017-07-09T17:52:38.276Z,101056.88
2017-07-09T17:55:06.611Z,101053.42
2017-07-09T17:57:34.970Z,101054.63
2017-07-09T18:00:03.608Z,101053.87
2017-07-09T18:02:31.938Z,101054.67
2017-07-09T18:05:00.268Z,101058.48
2017-07-09T18:07:28.903Z,101061.77
2017-07-09T18:09:57.223Z,101050.17
2017-07-09T18:12:25.567Z,101050.78
2017-07-09T18:14:54.505Z,101047.14
2017-07-09T18:17:22.869Z,101048.38
2017-07-09T18:19:51.219Z,101048.86
2017-07-09T18:22:19.893Z,101046.98
2017-07-09T18:24:48.228Z,101041.86
2017-07-09T18:27:16.558Z,101048.66
2017-07-09T18:29:45.239Z,101049.56
2017-07-09T18:32:13.594Z,101050.05
2017-07-09T18:34:41.928Z,101046.67
2017-07-09T18:37:10.825Z,101047.22
2017-07-09T18:39:39.148Z,101034.92
2017-07-09T18:42:07.496Z,101041.75
2017-07-09T18:44:36.283Z,101047.31
2017-07-09T18:47:04.633Z,101043.31
2017-07-09T18:49:33.734Z,101040.72
2017-07-09T18:52:02.538Z,101036.80
2017-07-09T18:54:30.882Z,101039.78
2017-07-09T18:56:59.274Z,101042.36
2017-07-09T18:59:28.034Z,101040.00
2017-07-09T19:01:56.381Z,101042.67
2017-07-09T19:04:24.760Z,101045.80
2017-07-09T19:06:53.625Z,101046.50
2017-07-09T19:09:21.996Z,101048.39
2017-07-09T19:11:51.095Z,101052.44
2017-07-09T19:14:20.713Z,101049.53
2017-07-09T19:16:49.073Z,101050.14
2017-07-09T19:19:17.409Z,101044.02
2017-07-09T19:21:46.572Z,101047.41
2017-07-09T19:24:14.936Z,101045.38
2017-07-09T19:26:44.060Z,101050.23
2017-07-09T19:29:12.701Z,101050.94
2017-07-09T19:31:41.814Z,101050.69
2017-07-09T19:34:10.166Z,101048.45
2017-07-09T19:36:38.871Z,101049.00
2017-07-09T19:39:07.212Z,101048.22
2017-07-09T19:41:35.542Z,101052.58
2017-07-09T19:44:04.314Z,101053.45
2017-07-09T19:46:32.747Z,101060.05
2017-07-09T19:49:01.103Z,101062.23
2017-07-09T19:51:29.743Z,101054.59
2017-07-09T19:53:58.088Z,101060.72
2017-07-09T19:56:26.466Z,101065.75
2017-07-09T19:58:55.463Z,101061.38
2017-07-09T20:01:23.805Z,101060.05
2017-07-09T20:03:52.156Z,101053.20
2017-07-09T20:06:21.587Z,101056.14
2017-07-09T20:08:50.713Z,101052.70
2017-07-09T20:11:19.051Z,101049.25
2017-07-09T20:13:47.685Z,101044.92
2017-07-09T20:16:16.008Z,101062.37
2017-07-09T20:18:44.342Z,101058.48
2017-07-09T20:21:13.011Z,101063.31
2017-07-09T20:23:41.356Z,101062.25
2017-07-09T20:26:09.690Z,101060.84
2017-07-09T20:28:38.479Z,101052.19
2017-07-09T20:31:06.848Z,101048.38
2017-07-09T20:33:35.199Z,101047.04
2017-07-09T20:36:03.849Z,101042.12
2017-07-09T20:38:32.214Z,101038.80
2017-07-09T20:41:00.544Z,101033.23
2017-07-09T20:43:29.529Z,101039.85
2017-07-09T20:45:57.857Z,101036.74
2017-07-09T20:48:26.202Z,101039.11
2017-07-09T20:50:55.073Z,101037.16
2017-07-09T20:53:23.390Z,101037.50
2017-07-09T20:55:51.754Z,101043.48
2017-07-09T20:58:20.435Z,101042.51
2017-07-09T21:00:48.779Z,101038.36
2017-07-09T21:03:17.149Z,101038.56
2017-07-09T21:05:45.792Z,101044.54
2017-07-09T21:08:14.165Z,101039.72
2017-07-09T21:10:42.493Z,101045.88
2017-07-09T21:13:11.331Z,101043.52
2017-07-09T21:15:39.688Z,101047.03
2017-07-09T21:18:08.820Z,101035.78
2017-07-09T21:20:37.579Z,101029.36
2017-07-09T21:23:06.215Z,101036.64
2017-07-09T21:25:34.563Z,101035.25
2017-07-09T21:28:03.272Z,101030.89
2017-07-09T21:30:31.599Z,101024.75
2017-07-09T21:33:00.724Z,101031.62
2017-07-09T21:35:29.703Z,101024.64
2017-07-09T21:37:58.114Z,101030.89
2017-07-09T21:40:26.454Z,101023.94
2017-07-09T21:42:55.105Z,101019.74
2017-07-09T21:45:23.453Z,101019.98
2017-07-09T21:47:51.798Z,101020.23
2017-07-09T21:50:21.211Z,101022.21
2017-07-09T21:52:49.548Z,101018.48
2017-07-09T21:55:17.878Z,101009.48
2017-07-09T21:57:46.828Z,101015.73
2017-07-09T22:00:15.195Z,101016.12
2017-07-09T22:02:43.550Z,101014.66
2017-07-09T22:05:12.224Z,101007.34
2017-07-09T22:07:40.573Z,101008.66
2017-07-09T22:10:08.908Z,101011.24
2017-07-09T22:12:37.619Z,101014.61
2017-07-09T22:15:05.989Z,101008.74
2017-07-09T22:17:34.330Z,101011.22
2017-07-09T22:20:03.104Z,101009.90
2017-07-09T22:22:31.458Z,101008.20
2017-07-09T22:25:00.111Z,101017.70
2017-07-09T22:27:28.804Z,101019.86
2017-07-09T22:29:57.156Z,101009.22
2017-07-09T22:32:25.516Z,101014.70
2017-07-09T22:34:54.323Z,101020.76
2017-07-09T22:37:22.683Z,101021.36
2017-07-09T22:39:51.072Z,101021.38
2017-07-09T22:42:19.958Z,101022.89
2017-07-09T22:44:48.338Z,101014.28
2017-07-09T22:47:16.693Z,101013.84
2017-07-09T22:49:45.603Z,101013.39
2017-07-09T22:52:13.917Z,100999.58
2017-07-09T22:54:42.234Z,101008.62
2017-07-09T22:57:15.318Z,101011.71
2017-07-09T22:59:43.688Z,101009.67
2017-07-09T23:02:12.128Z,101002.55
2017-07-09T23:04:40.987Z,100998.17
2017-07-09T23:07:09.331Z,101000.02
2017-07-09T23:09:37.655Z,100992.13
2017-07-09T23:12:06.372Z,100995.39
2017-07-09T23:14:34.706Z,101000.20
2017-07-09T23:17:03.027Z,101001.51
2017-07-09T23:19:31.889Z,100992.40
2017-07-09T23:22:00.236Z,100992.58
2017-07-09T23:24:28.578Z,100980.94
2017-07-09T23:26:57.240Z,100983.80
2017-07-09T23:29:25.608Z,100986.97
2017-07-09T23:31:53.939Z,100974.32
2017-07-09T23:34:22.654Z,100975.11
2017-07-09T23:36:50.996Z,100973.09
2017-07-09T23:39:19.326Z,100963.72
2017-07-09T23:41:48.213Z,100949.28
2017-07-09T23:44:16.564Z,100949.16
2017-07-09T23:46:44.894Z,100953.59
2017-07-09T23:49:13.547Z,100952.28
2017-07-09T23:51:42.657Z,100942.55
2017-07-09T23:54:10.987Z,100942.33
2017-07-09T23:56:39.636Z,100938.84
2017-07-09T23:59:08.214Z,100930.73
